Pagina principale
METAR-TAF:

METAR-TAF

Aeroporti :

Huesca, Spagna

latitudine: 42-04-32N, longitudine: 0-18-58W, altezza: 539 m

Osservazione

Il bollettino è stato emesso 28 minuti fa, alle 06:00 UTC
Vento 8 kt da est/nord-est, variando fra nord/nord-est e est
Temperature 24°C
Umidità 41%
Pressione 1019 hPa
Visibilità 10 km o più

METAR: LEHC 260600Z AUTO 07008KT 030V100 9999 NCD 24/10 Q1019

Ora: 08:28 (06:28 UTC)

Previsione

Il bollettino è stato emesso 4 ore e 28 minuti fa, alle 02:00 UTC
Previsione valida dal 26 alle 03 UTC al 27 alle 03 UTC
Vento 12 kt da est
Visibilità 10 km o più
nessuna nube inferiore a 1500 m e nessun cumulonembo
Temporaneamente
dal 26 alle 09 UTC al 26 alle 20 UTC
Vento 21 kt da est/sud-est con raffiche fino a 31 kt

TAF: LEHC 260200Z 2603/2703 09012KT CAVOK TX38/2614Z TN23/2605Z TEMPO 2609/2620 11021G31KT

Osservazioni e previsioni meteorologiche di più di 4000 aeroporti (messaggi METAR e TAF).

Le stazioni disponibili sono rappresentate dai dischi gialli e rossi sulla carta.

Puntare il mouse per vedere il nome della stazione.

Clicca sopra per visualizzare le osservazioni e previsioni meteorologiche.

Per cambiare la mappa : fare clic sui pulsanti verdi con una croce nera per ingrandire, il pulsante verde con un trattino per diminuire, o sulla freccia verde per le mappe adiacenti.


METAR-TAF: